Time;durP1;ratioP1;P1;durP2;ratioP2;P2;SDS_P1;SDS_P2;PMS_P1;PMS_P2;Temp;Humidity;BMP_temperature;BMP_pressure;BME280_temperature;BME280_humidity;BME280_pressure;Samples;Min_cycle;Max_cycle;Signal;HPM_P1;HPM_P2
2021/11/06 00:02:11;;;;;;;29.07;26.67;;;;;;;;;;5016018;28;20893;-86
2021/11/06 00:04:39;;;;;;;29.97;27.43;;;;;;;;;;5015885;28;20848;-84
2021/11/06 00:07:06;;;;;;;29.67;27.27;;;;;;;;;;5015610;28;20451;-86
2021/11/06 00:09:34;;;;;;;30.80;28.35;;;;;;;;;;5015295;28;20495;-86
2021/11/06 00:12:01;;;;;;;28.67;26.17;;;;;;;;;;5015560;28;20653;-86
2021/11/06 00:14:28;;;;;;;29.27;27.13;;;;;;;;;;5015583;28;20433;-86
2021/11/06 00:16:57;;;;;;;29.77;26.77;;;;;;;;;;5015023;28;20669;-86
2021/11/06 00:19:25;;;;;;;28.93;26.30;;;;;;;;;;5015586;28;20427;-85
2021/11/06 00:21:52;;;;;;;27.67;25.50;;;;;;;;;;4997900;28;20870;-85
2021/11/06 00:24:20;;;;;;;26.45;24.25;;;;;;;;;;5015201;28;20495;-86
2021/11/06 00:26:49;;;;;;;27.30;24.90;;;;;;;;;;5015033;28;20625;-86
2021/11/06 00:29:16;;;;;;;25.80;23.65;;;;;;;;;;4997530;28;20237;-86
2021/11/06 00:31:44;;;;;;;27.33;25.23;;;;;;;;;;5015379;28;20196;-86
2021/11/06 00:34:16;;;;;;;26.65;24.95;;;;;;;;;;5014713;28;20451;-86
2021/11/06 00:36:43;;;;;;;27.52;25.10;;;;;;;;;;5014813;28;20281;-85
2021/11/06 00:39:10;;;;;;;26.38;24.48;;;;;;;;;;5014517;28;20200;-86
2021/11/06 00:41:38;;;;;;;26.50;24.10;;;;;;;;;;5014864;28;20204;-86
2021/11/06 00:44:06;;;;;;;26.07;24.27;;;;;;;;;;5014723;28;20494;-85
2021/11/06 00:46:33;;;;;;;25.03;23.23;;;;;;;;;;5014950;28;20443;-86
2021/11/06 00:49:01;;;;;;;26.80;24.13;;;;;;;;;;5015112;28;20467;-85
2021/11/06 00:51:29;;;;;;;25.42;23.60;;;;;;;;;;5014814;28;20780;-85
2021/11/06 00:53:57;;;;;;;26.20;24.17;;;;;;;;;;5014963;28;20189;-85
2021/11/06 00:56:24;;;;;;;26.10;24.20;;;;;;;;;;4997069;28;20200;-84
2021/11/06 00:58:51;;;;;;;24.67;22.83;;;;;;;;;;5014579;28;20489;-85
2021/11/06 01:01:19;;;;;;;25.43;23.60;;;;;;;;;;5014550;28;20262;-85
2021/11/06 01:03:46;;;;;;;25.35;23.55;;;;;;;;;;5014597;28;20812;-85
2021/11/06 01:06:14;;;;;;;25.95;23.77;;;;;;;;;;5014431;28;20197;-86
2021/11/06 01:08:43;;;;;;;25.60;23.70;;;;;;;;;;5014697;28;20231;-85
2021/11/06 01:11:11;;;;;;;26.93;24.63;;;;;;;;;;4996802;28;20475;-85
2021/11/06 01:13:38;;;;;;;26.20;24.33;;;;;;;;;;5014520;28;20452;-86
2021/11/06 01:16:06;;;;;;;27.40;24.90;;;;;;;;;;5014082;28;20190;-86
2021/11/06 01:18:33;;;;;;;28.35;26.00;;;;;;;;;;5014403;28;20438;-85
2021/11/06 01:21:01;;;;;;;31.07;28.10;;;;;;;;;;4997374;28;20204;-85
2021/11/06 01:23:28;;;;;;;26.83;24.75;;;;;;;;;;4997074;28;20418;-86
2021/11/06 01:25:57;;;;;;;29.23;26.93;;;;;;;;;;5014400;28;20654;-85
2021/11/06 01:28:24;;;;;;;29.60;27.25;;;;;;;;;;5014065;28;20490;-85
2021/11/06 01:30:52;;;;;;;30.38;27.73;;;;;;;;;;5014386;28;20575;-85
2021/11/06 01:33:19;;;;;;;30.87;28.57;;;;;;;;;;5014223;28;20252;-85
2021/11/06 01:35:47;;;;;;;30.88;28.40;;;;;;;;;;5013907;28;20441;-86
2021/11/06 01:38:14;;;;;;;30.38;27.90;;;;;;;;;;5014034;28;20209;-85
2021/11/06 01:40:42;;;;;;;29.70;27.38;;;;;;;;;;4996457;28;20248;-86
2021/11/06 01:43:11;;;;;;;31.10;28.30;;;;;;;;;;5013909;28;20642;-86
2021/11/06 01:45:38;;;;;;;31.50;28.60;;;;;;;;;;4996279;28;20537;-85
2021/11/06 01:48:06;;;;;;;30.10;27.48;;;;;;;;;;5013898;28;20816;-86
2021/11/06 01:50:33;;;;;;;31.10;28.50;;;;;;;;;;5012672;28;20670;-86
2021/11/06 01:53:01;;;;;;;31.35;28.95;;;;;;;;;;5013886;28;20855;-85
2021/11/06 01:55:28;;;;;;;30.75;28.25;;;;;;;;;;4996402;28;20741;-86
2021/11/06 01:57:55;;;;;;;31.43;28.90;;;;;;;;;;5014096;28;20208;-85
2021/11/06 02:00:26;;;;;;;31.60;28.85;;;;;;;;;;5014056;28;20451;-85
2021/11/06 02:02:53;;;;;;;30.40;27.90;;;;;;;;;;5013972;28;20212;-86
2021/11/06 02:05:21;;;;;;;33.22;30.35;;;;;;;;;;5013581;28;20498;-86
2021/11/06 02:07:48;;;;;;;32.50;29.08;;;;;;;;;;5013876;28;20244;-86
2021/11/06 02:10:16;;;;;;;35.03;31.48;;;;;;;;;;5013974;28;20204;-86
2021/11/06 02:12:44;;;;;;;31.23;28.77;;;;;;;;;;5013891;28;20216;-85
2021/11/06 02:15:13;;;;;;;32.97;30.10;;;;;;;;;;5013958;28;20244;-86
2021/11/06 02:17:42;;;;;;;32.77;29.93;;;;;;;;;;5013769;28;20190;-85
2021/11/06 02:20:10;;;;;;;32.50;29.63;;;;;;;;;;5013536;28;20420;-86
2021/11/06 02:22:39;;;;;;;34.50;31.55;;;;;;;;;;5013452;28;20208;-85
2021/11/06 02:25:07;;;;;;;34.25;31.13;;;;;;;;;;5013595;28;20217;-86
2021/11/06 02:27:35;;;;;;;34.30;31.23;;;;;;;;;;4996278;28;20235;-86
2021/11/06 02:30:02;;;;;;;35.65;32.75;;;;;;;;;;5013462;28;20190;-86
2021/11/06 02:32:30;;;;;;;34.33;31.23;;;;;;;;;;5013449;28;20223;-86
2021/11/06 02:34:57;;;;;;;33.17;30.30;;;;;;;;;;4995930;28;20567;-85
2021/11/06 02:37:25;;;;;;;32.97;29.67;;;;;;;;;;5013427;28;20638;-84
2021/11/06 02:39:54;;;;;;;31.37;28.73;;;;;;;;;;5013748;28;20662;-86
2021/11/06 02:42:21;;;;;;;30.45;27.95;;;;;;;;;;5013555;28;20439;-85
2021/11/06 02:44:49;;;;;;;31.40;28.35;;;;;;;;;;5013156;28;20217;-86
2021/11/06 02:47:17;;;;;;;29.17;27.03;;;;;;;;;;5013214;28;20642;-85
2021/11/06 02:49:44;;;;;;;35.22;31.75;;;;;;;;;;5013617;28;20414;-85
2021/11/06 02:52:11;;;;;;;30.35;28.00;;;;;;;;;;5013400;28;20186;-85
2021/11/06 02:54:39;;;;;;;30.58;27.95;;;;;;;;;;5013313;28;20200;-85
2021/11/06 02:57:10;;;;;;;31.42;28.25;;;;;;;;;;4996136;28;20186;-85
2021/11/06 02:59:37;;;;;;;30.08;27.55;;;;;;;;;;5013403;28;20220;-84
2021/11/06 03:02:05;;;;;;;31.73;29.08;;;;;;;;;;5016067;28;20192;-86
2021/11/06 03:04:35;;;;;;;30.90;28.58;;;;;;;;;;5016980;28;20240;-85
2021/11/06 03:07:03;;;;;;;31.48;28.80;;;;;;;;;;5016865;28;20199;-85
2021/11/06 03:09:30;;;;;;;31.70;29.20;;;;;;;;;;5016433;28;20698;-85
2021/11/06 03:11:58;;;;;;;31.58;28.98;;;;;;;;;;5016653;28;20465;-85
2021/11/06 03:14:27;;;;;;;32.10;29.35;;;;;;;;;;5016722;28;20202;-85
2021/11/06 03:16:56;;;;;;;32.50;29.80;;;;;;;;;;5016545;28;20186;-85
2021/11/06 03:19:23;;;;;;;32.60;29.50;;;;;;;;;;5016690;28;20197;-86
2021/11/06 03:21:51;;;;;;;32.93;29.97;;;;;;;;;;5016434;28;20198;-86
2021/11/06 03:24:18;;;;;;;32.17;29.42;;;;;;;;;;4999480;28;20808;-85
2021/11/06 03:26:46;;;;;;;31.63;29.23;;;;;;;;;;5016183;28;20195;-85
2021/11/06 03:29:13;;;;;;;32.28;29.75;;;;;;;;;;5016000;28;20234;-85
2021/11/06 03:31:42;;;;;;;33.53;30.85;;;;;;;;;;5016477;28;20204;-86
2021/11/06 03:34:10;;;;;;;33.78;30.90;;;;;;;;;;4998684;28;20275;-86
2021/11/06 03:36:37;;;;;;;33.60;30.75;;;;;;;;;;5016041;28;20199;-86
2021/11/06 03:39:05;;;;;;;32.45;29.80;;;;;;;;;;5016133;28;20711;-85
2021/11/06 03:41:32;;;;;;;34.55;31.38;;;;;;;;;;4998635;28;20674;-85
2021/11/06 03:44:00;;;;;;;33.72;30.73;;;;;;;;;;5015973;28;20662;-84
2021/11/06 03:46:27;;;;;;;34.42;31.25;;;;;;;;;;5015516;28;20237;-86
2021/11/06 03:48:56;;;;;;;34.90;31.25;;;;;;;;;;5015963;28;20538;-85
2021/11/06 03:51:23;;;;;;;31.50;28.63;;;;;;;;;;5016076;28;20200;-85
2021/11/06 03:53:51;;;;;;;31.73;29.10;;;;;;;;;;5015888;28;20543;-85
2021/11/06 03:56:18;;;;;;;32.80;29.73;;;;;;;;;;5015985;28;20435;-85
2021/11/06 03:58:46;;;;;;;31.52;28.98;;;;;;;;;;5015767;28;20419;-85
2021/11/06 04:01:13;;;;;;;32.67;30.05;;;;;;;;;;5016052;28;20213;-85
2021/11/06 04:03:41;;;;;;;33.70;30.20;;;;;;;;;;5015650;28;20189;-85
2021/11/06 04:06:09;;;;;;;32.33;29.63;;;;;;;;;;5015486;28;20228;-86
2021/11/06 04:08:37;;;;;;;32.23;29.67;;;;;;;;;;5015500;28;20540;-85
2021/11/06 04:11:05;;;;;;;32.83;29.52;;;;;;;;;;5015676;28;20451;-84
2021/11/06 04:13:32;;;;;;;32.33;29.90;;;;;;;;;;5014662;28;20192;-86
2021/11/06 04:15:59;;;;;;;32.30;29.53;;;;;;;;;;5015492;28;20426;-85
2021/11/06 04:18:27;;;;;;;32.60;29.90;;;;;;;;;;5015433;28;20419;-86
2021/11/06 04:20:54;;;;;;;33.00;30.30;;;;;;;;;;5015131;28;20438;-86
2021/11/06 04:23:23;;;;;;;32.35;29.55;;;;;;;;;;5015248;28;20215;-85
2021/11/06 04:25:50;;;;;;;31.73;29.30;;;;;;;;;;5015250;28;20223;-85
2021/11/06 04:28:18;;;;;;;33.78;31.02;;;;;;;;;;5015192;28;20247;-85
2021/11/06 04:30:45;;;;;;;34.10;31.10;;;;;;;;;;5015211;28;20197;-85
2021/11/06 04:33:13;;;;;;;33.17;30.17;;;;;;;;;;4997364;28;20530;-86
2021/11/06 04:35:41;;;;;;;35.03;31.52;;;;;;;;;;5014923;28;20904;-85
2021/11/06 04:38:08;;;;;;;33.95;31.25;;;;;;;;;;5015285;28;20194;-85
2021/11/06 04:40:37;;;;;;;36.50;33.28;;;;;;;;;;5015158;28;20564;-86
2021/11/06 04:43:05;;;;;;;35.92;32.92;;;;;;;;;;5014972;28;20229;-86
2021/11/06 04:45:32;;;;;;;34.42;31.25;;;;;;;;;;5014624;28;20221;-85
2021/11/06 04:47:59;;;;;;;34.23;31.00;;;;;;;;;;5015122;28;20200;-86
2021/11/06 04:50:27;;;;;;;36.60;33.57;;;;;;;;;;5015138;28;20447;-85
2021/11/06 04:52:54;;;;;;;33.40;30.63;;;;;;;;;;5014908;28;20408;-86
2021/11/06 04:55:21;;;;;;;34.27;31.17;;;;;;;;;;5015010;28;20440;-85
2021/11/06 04:57:50;;;;;;;34.42;30.95;;;;;;;;;;5014829;28;20466;-85
2021/11/06 05:00:18;;;;;;;35.13;31.77;;;;;;;;;;5014779;28;20188;-85
2021/11/06 05:02:45;;;;;;;35.47;31.67;;;;;;;;;;5014525;28;20272;-85
2021/11/06 05:05:13;;;;;;;35.53;32.40;;;;;;;;;;5014754;28;20483;-85
2021/11/06 05:07:40;;;;;;;34.83;31.38;;;;;;;;;;4996886;28;20483;-85
2021/11/06 05:10:08;;;;;;;35.20;31.98;;;;;;;;;;5014370;28;20193;-86
2021/11/06 05:12:36;;;;;;;34.80;31.60;;;;;;;;;;5014440;28;20197;-85
2021/11/06 05:15:06;;;;;;;35.80;32.53;;;;;;;;;;5014605;28;20417;-86
2021/11/06 05:17:34;;;;;;;34.45;31.05;;;;;;;;;;5014398;28;20436;-85
2021/11/06 05:20:02;;;;;;;36.70;33.58;;;;;;;;;;5014369;28;20196;-85
2021/11/06 05:22:30;;;;;;;37.10;33.30;;;;;;;;;;5014160;28;20204;-85
2021/11/06 05:24:57;;;;;;;35.43;32.00;;;;;;;;;;5013766;28;20479;-86
2021/11/06 05:27:25;;;;;;;40.05;36.22;;;;;;;;;;5014158;28;20448;-85
2021/11/06 05:29:53;;;;;;;36.27;32.67;;;;;;;;;;5014227;28;20203;-86
2021/11/06 05:32:21;;;;;;;33.00;29.93;;;;;;;;;;5014225;28;20509;-86
2021/11/06 05:34:49;;;;;;;34.43;31.23;;;;;;;;;;5014065;28;20507;-85
2021/11/06 05:37:16;;;;;;;35.13;31.67;;;;;;;;;;5014400;28;20450;-86
2021/11/06 05:39:44;;;;;;;35.50;32.27;;;;;;;;;;4996764;28;20779;-85
2021/11/06 05:42:11;;;;;;;37.00;33.40;;;;;;;;;;5013829;28;20803;-86
2021/11/06 05:44:38;;;;;;;35.80;32.10;;;;;;;;;;5013764;28;20312;-85
2021/11/06 05:47:06;;;;;;;35.63;32.30;;;;;;;;;;5013702;28;20546;-86
2021/11/06 05:49:35;;;;;;;36.90;33.07;;;;;;;;;;5013964;28;20441;-86
2021/11/06 05:52:02;;;;;;;34.17;31.10;;;;;;;;;;5014011;28;20439;-85
2021/11/06 05:54:29;;;;;;;35.53;32.00;;;;;;;;;;5013949;28;20456;-86
2021/11/06 05:56:57;;;;;;;34.38;31.00;;;;;;;;;;5013901;28;20451;-85
2021/11/06 05:59:24;;;;;;;34.85;31.45;;;;;;;;;;5013748;28;20681;-85
2021/11/06 06:01:52;;;;;;;35.70;32.37;;;;;;;;;;5013904;28;20189;-85
2021/11/06 06:04:19;;;;;;;34.60;31.60;;;;;;;;;;5013725;28;20443;-86
2021/11/06 06:06:48;;;;;;;38.20;33.87;;;;;;;;;;5013749;28;20481;-84
2021/11/06 06:09:15;;;;;;;33.87;30.57;;;;;;;;;;5013778;28;20446;-86
2021/11/06 06:11:43;;;;;;;34.85;31.48;;;;;;;;;;5013837;28;20531;-85
2021/11/06 06:14:10;;;;;;;35.65;32.45;;;;;;;;;;5013802;28;20189;-85
2021/11/06 06:16:38;;;;;;;34.90;31.53;;;;;;;;;;5013433;28;20185;-85
2021/11/06 06:19:05;;;;;;;34.63;31.27;;;;;;;;;;5013949;28;20436;-85
2021/11/06 06:21:32;;;;;;;36.72;33.35;;;;;;;;;;5014029;28;20454;-86
2021/11/06 06:24:01;;;;;;;34.33;31.38;;;;;;;;;;5013548;28;20594;-85
2021/11/06 06:26:29;;;;;;;36.47;32.70;;;;;;;;;;5013325;28;20567;-85
2021/11/06 06:28:56;;;;;;;35.08;31.60;;;;;;;;;;4992646;28;20237;-85
2021/11/06 06:31:23;;;;;;;32.60;29.50;;;;;;;;;;4993732;28;20707;-84
2021/11/06 06:33:51;;;;;;;34.75;31.50;;;;;;;;;;4993842;28;20419;-85
2021/11/06 06:36:18;;;;;;;34.88;31.30;;;;;;;;;;4995803;28;20194;-85
2021/11/06 06:38:46;;;;;;;34.75;31.42;;;;;;;;;;4989976;28;20214;-85
2021/11/06 06:41:15;;;;;;;34.95;31.40;;;;;;;;;;4996274;28;20252;-86
2021/11/06 06:43:42;;;;;;;33.20;30.15;;;;;;;;;;4998064;28;20193;-87
2021/11/06 06:46:10;;;;;;;35.23;31.53;;;;;;;;;;4997807;28;20214;-86
2021/11/06 06:48:37;;;;;;;32.42;29.48;;;;;;;;;;4997643;28;20911;-85
2021/11/06 06:51:05;;;;;;;33.97;30.23;;;;;;;;;;4997550;28;20255;-86
2021/11/06 06:53:32;;;;;;;33.20;30.00;;;;;;;;;;4997565;28;20424;-86
2021/11/06 06:55:59;;;;;;;34.47;31.15;;;;;;;;;;4997624;28;20441;-85
2021/11/06 06:58:28;;;;;;;34.10;30.50;;;;;;;;;;4997450;28;20194;-85
2021/11/06 07:00:56;;;;;;;33.03;30.20;;;;;;;;;;4997199;28;20243;-86
2021/11/06 07:03:23;;;;;;;33.90;30.60;;;;;;;;;;4997314;28;20463;-86
2021/11/06 07:05:50;;;;;;;34.50;31.33;;;;;;;;;;4997247;28;20229;-86
2021/11/06 07:08:19;;;;;;;31.88;29.17;;;;;;;;;;4997401;28;20476;-86
2021/11/06 07:10:47;;;;;;;33.40;29.88;;;;;;;;;;4997472;28;20189;-86
2021/11/06 07:13:19;;;;;;;34.13;31.13;;;;;;;;;;4997359;28;20569;-86
2021/11/06 07:15:48;;;;;;;32.22;29.20;;;;;;;;;;4997027;28;20208;-85
2021/11/06 07:18:16;;;;;;;32.60;29.85;;;;;;;;;;4996917;28;20565;-86
2021/11/06 07:20:44;;;;;;;31.10;28.02;;;;;;;;;;4996659;28;20554;-85
2021/11/06 07:23:11;;;;;;;32.95;29.92;;;;;;;;;;4996643;28;20204;-85
2021/11/06 07:25:39;;;;;;;32.13;28.95;;;;;;;;;;4996959;28;20221;-85
2021/11/06 07:28:07;;;;;;;31.27;28.73;;;;;;;;;;4996858;28;20240;-85
2021/11/06 07:30:34;;;;;;;30.70;27.60;;;;;;;;;;4996754;28;20638;-86
2021/11/06 07:33:03;;;;;;;29.03;26.57;;;;;;;;;;4991266;28;20453;-86
2021/11/06 07:35:30;;;;;;;30.63;27.80;;;;;;;;;;4996857;28;20427;-86
2021/11/06 07:37:58;;;;;;;29.47;26.97;;;;;;;;;;4996522;28;20190;-86
2021/11/06 07:40:26;;;;;;;32.20;29.48;;;;;;;;;;4996507;28;20419;-86
2021/11/06 07:42:53;;;;;;;30.15;27.58;;;;;;;;;;4995856;28;20229;-86
2021/11/06 07:45:21;;;;;;;30.10;27.40;;;;;;;;;;4996348;28;20222;-86
2021/11/06 07:47:49;;;;;;;30.60;28.17;;;;;;;;;;4996292;28;20448;-86
2021/11/06 07:50:18;;;;;;;30.50;27.90;;;;;;;;;;4996799;28;20437;-93
2021/11/06 07:52:46;;;;;;;31.17;28.37;;;;;;;;;;4988572;28;20451;-86
2021/11/06 07:55:14;;;;;;;30.77;28.30;;;;;;;;;;4995062;28;20439;-85
2021/11/06 07:57:41;;;;;;;27.95;25.60;;;;;;;;;;4996391;28;20519;-86
2021/11/06 08:00:11;;;;;;;27.73;25.53;;;;;;;;;;4996471;28;20220;-86
2021/11/06 08:02:38;;;;;;;29.10;26.93;;;;;;;;;;4996274;28;20445;-85
2021/11/06 08:05:06;;;;;;;28.50;25.80;;;;;;;;;;4996203;28;20438;-85
2021/11/06 08:07:35;;;;;;;27.40;25.10;;;;;;;;;;4995835;28;20536;-86
2021/11/06 08:10:02;;;;;;;27.63;25.53;;;;;;;;;;4996320;28;20445;-85
2021/11/06 08:12:30;;;;;;;27.92;25.42;;;;;;;;;;4996447;28;20456;-85
2021/11/06 08:14:57;;;;;;;27.83;25.20;;;;;;;;;;4995840;28;20714;-86
2021/11/06 08:17:25;;;;;;;27.70;25.43;;;;;;;;;;4993190;28;20461;-86
2021/11/06 08:19:52;;;;;;;26.03;24.13;;;;;;;;;;4988872;28;20510;-86
2021/11/06 08:22:19;;;;;;;26.60;24.30;;;;;;;;;;4995897;28;20441;-86
2021/11/06 08:24:48;;;;;;;26.77;24.47;;;;;;;;;;4995860;28;20431;-86
2021/11/06 08:27:16;;;;;;;25.73;23.83;;;;;;;;;;4995603;28;20484;-85
2021/11/06 08:29:43;;;;;;;27.20;24.90;;;;;;;;;;4995944;28;20938;-86
2021/11/06 08:32:10;;;;;;;24.97;23.10;;;;;;;;;;4991272;28;20487;-85
2021/11/06 08:34:38;;;;;;;25.90;23.83;;;;;;;;;;4995760;28;20432;-86
2021/11/06 08:37:05;;;;;;;25.97;24.17;;;;;;;;;;4995535;28;20445;-86
2021/11/06 08:39:33;;;;;;;26.55;24.40;;;;;;;;;;4995692;28;20432;-86
2021/11/06 08:42:01;;;;;;;26.77;24.60;;;;;;;;;;4995728;28;20191;-86
2021/11/06 08:44:29;;;;;;;27.33;25.23;;;;;;;;;;4995522;28;20434;-86
2021/11/06 08:46:56;;;;;;;27.03;24.73;;;;;;;;;;4995511;28;20978;-86
2021/11/06 08:49:24;;;;;;;25.70;23.50;;;;;;;;;;4995841;28;20493;-86
2021/11/06 08:51:52;;;;;;;27.50;25.00;;;;;;;;;;4988554;28;20434;-86
2021/11/06 08:54:20;;;;;;;23.52;21.83;;;;;;;;;;4995642;28;20452;-86
2021/11/06 08:56:49;;;;;;;28.23;25.60;;;;;;;;;;4995670;28;20561;-88
2021/11/06 08:59:18;;;;;;;28.17;25.80;;;;;;;;;;4995364;28;20473;-88
2021/11/06 09:01:47;;;;;;;26.50;24.30;;;;;;;;;;4995429;28;20411;-88
2021/11/06 09:04:15;;;;;;;26.93;24.90;;;;;;;;;;4995390;28;20446;-88
2021/11/06 09:06:44;;;;;;;28.47;26.10;;;;;;;;;;4995281;28;20484;-87
2021/11/06 09:09:13;;;;;;;28.20;26.17;;;;;;;;;;4995350;28;20416;-89
2021/11/06 09:11:41;;;;;;;26.73;24.83;;;;;;;;;;4995490;28;20428;-88
2021/11/06 09:14:09;;;;;;;26.42;24.42;;;;;;;;;;4990979;28;20451;-92
2021/11/06 09:16:39;;;;;;;26.75;24.60;;;;;;;;;;5004349;28;20207;-94
2021/11/06 09:19:07;;;;;;;23.67;21.95;;;;;;;;;;5016445;28;20259;-92
2021/11/06 09:21:34;;;;;;;27.47;24.90;;;;;;;;;;5015525;28;20205;-88
2021/11/06 09:24:03;;;;;;;26.83;24.70;;;;;;;;;;5014797;28;20447;-89
2021/11/06 09:26:31;;;;;;;28.23;25.38;;;;;;;;;;5014858;28;20537;-87
2021/11/06 09:28:58;;;;;;;27.50;25.30;;;;;;;;;;5014870;28;20272;-88
2021/11/06 09:31:25;;;;;;;26.60;24.37;;;;;;;;;;5015257;28;20192;-85
2021/11/06 09:33:55;;;;;;;27.27;25.13;;;;;;;;;;5015894;28;20447;-91
2021/11/06 09:36:22;;;;;;;28.83;26.43;;;;;;;;;;5014889;28;20430;-88
2021/11/06 09:38:50;;;;;;;27.83;25.53;;;;;;;;;;5014850;28;20946;-92
2021/11/06 09:41:17;;;;;;;29.73;26.97;;;;;;;;;;5015392;28;20471;-91
2021/11/06 09:43:45;;;;;;;24.50;22.80;;;;;;;;;;5014445;28;20454;-90
2021/11/06 09:46:12;;;;;;;30.27;27.77;;;;;;;;;;5014166;28;20423;-90
2021/11/06 09:48:42;;;;;;;28.07;25.60;;;;;;;;;;5014326;28;20470;-90
2021/11/06 09:51:12;;;;;;;28.40;25.93;;;;;;;;;;5014342;28;20447;-91
2021/11/06 09:53:40;;;;;;;28.13;25.70;;;;;;;;;;5014538;28;20436;-91
2021/11/06 09:56:08;;;;;;;28.03;25.93;;;;;;;;;;5014994;28;20777;-92
2021/11/06 09:58:36;;;;;;;29.10;26.20;;;;;;;;;;5014549;28;20407;-93
2021/11/06 10:01:04;;;;;;;29.40;27.07;;;;;;;;;;5014576;28;20452;-95
2021/11/06 10:03:32;;;;;;;30.83;28.40;;;;;;;;;;5016668;28;20429;-87
2021/11/06 10:06:01;;;;;;;28.90;26.40;;;;;;;;;;5008227;28;20423;-89
2021/11/06 10:08:34;;;;;;;28.60;26.40;;;;;;;;;;5013611;28;20500;-91
2021/11/06 10:11:03;;;;;;;29.13;26.83;;;;;;;;;;5015782;28;20458;-91
2021/11/06 10:13:30;;;;;;;29.00;26.50;;;;;;;;;;5018682;28;20418;-92
2021/11/06 10:15:59;;;;;;;29.37;26.80;;;;;;;;;;5018309;28;20887;-92
2021/11/06 10:18:27;;;;;;;26.73;24.80;;;;;;;;;;5018503;28;20838;-90
2021/11/06 10:21:00;;;;;;;28.40;25.87;;;;;;;;;;5018047;28;20841;-90
2021/11/06 10:23:28;;;;;;;28.53;26.03;;;;;;;;;;5018285;28;20422;-91
2021/11/06 10:26:10;;;;;;;28.27;25.73;;;;;;;;;;5011627;28;20422;-90
2021/11/06 10:28:38;;;;;;;27.50;25.07;;;;;;;;;;5030238;28;20461;-95
2021/11/06 10:31:05;;;;;;;28.90;26.33;;;;;;;;;;5038523;28;20520;-96
2021/11/06 10:33:42;;;;;;;27.57;25.57;;;;;;;;;;5037839;28;20453;-95
2021/11/06 10:36:16;;;;;;;28.20;25.83;;;;;;;;;;5039381;28;20405;-90
2021/11/06 10:38:44;;;;;;;27.50;25.50;;;;;;;;;;5039572;28;20432;-96
2021/11/06 10:41:13;;;;;;;27.77;25.33;;;;;;;;;;5041829;28;20418;-94
2021/11/06 10:43:50;;;;;;;28.20;25.57;;;;;;;;;;5038072;28;20433;-96
2021/11/06 10:46:24;;;;;;;24.97;23.20;;;;;;;;;;5037525;28;20413;-95
2021/11/06 10:48:52;;;;;;;27.47;25.10;;;;;;;;;;5038181;28;20447;-95
2021/11/06 10:51:19;;;;;;;26.10;24.03;;;;;;;;;;5038362;28;20744;-95
2021/11/06 10:53:50;;;;;;;26.83;24.83;;;;;;;;;;5020557;28;20418;-95
2021/11/06 10:56:42;;;;;;;25.17;23.30;;;;;;;;;;5020407;28;20459;-93
2021/11/06 10:59:11;;;;;;;24.60;22.83;;;;;;;;;;5037953;28;20421;-94
2021/11/06 11:01:39;;;;;;;26.87;24.83;;;;;;;;;;5037396;28;20437;-95
2021/11/06 11:04:07;;;;;;;25.00;23.20;;;;;;;;;;5019576;28;20461;-95
2021/11/06 11:06:37;;;;;;;25.60;23.80;;;;;;;;;;5037091;28;20429;-95
2021/11/06 11:09:06;;;;;;;26.13;24.20;;;;;;;;;;5019728;28;20429;-94
2021/11/06 11:11:35;;;;;;;26.50;24.50;;;;;;;;;;5037208;28;20466;-94
2021/11/06 11:14:04;;;;;;;25.43;23.43;;;;;;;;;;5037423;28;20433;-94
2021/11/06 11:16:32;;;;;;;23.50;21.87;;;;;;;;;;5037291;28;20513;-95
2021/11/06 11:19:03;;;;;;;25.60;23.77;;;;;;;;;;5036800;28;20414;-94
2021/11/06 11:21:31;;;;;;;25.10;23.30;;;;;;;;;;5036547;28;20847;-94
2021/11/06 11:24:00;;;;;;;26.03;24.07;;;;;;;;;;5036930;28;20432;-95
2021/11/06 11:26:29;;;;;;;24.60;23.10;;;;;;;;;;5036634;28;20433;-89
2021/11/06 11:28:58;;;;;;;25.50;23.37;;;;;;;;;;5035894;28;20481;-90
2021/11/06 11:31:26;;;;;;;26.10;24.20;;;;;;;;;;5036252;28;20523;-94
2021/11/06 11:33:54;;;;;;;24.07;22.47;;;;;;;;;;5036701;28;20545;-95
2021/11/06 11:36:23;;;;;;;26.50;24.30;;;;;;;;;;5036527;28;20439;-94
2021/11/06 11:38:51;;;;;;;25.30;23.30;;;;;;;;;;5019274;28;20447;-95
2021/11/06 11:41:30;;;;;;;24.93;23.00;;;;;;;;;;5036724;28;20435;-93
2021/11/06 11:44:11;;;;;;;24.60;22.90;;;;;;;;;;5037019;28;20433;-92
2021/11/06 11:46:40;;;;;;;24.00;22.10;;;;;;;;;;5036700;28;20457;-93
2021/11/06 11:49:21;;;;;;;23.57;21.93;;;;;;;;;;5041583;28;20499;-96
2021/11/06 11:51:48;;;;;;;24.40;22.60;;;;;;;;;;5033020;28;20440;-91
2021/11/06 11:54:16;;;;;;;24.87;23.20;;;;;;;;;;5016044;28;20456;-94
2021/11/06 11:56:43;;;;;;;25.17;23.37;;;;;;;;;;5016767;28;20422;-90
2021/11/06 11:59:31;;;;;;;23.63;22.10;;;;;;;;;;5016176;28;20439;-91
2021/11/06 12:02:13;;;;;;;23.60;22.00;;;;;;;;;;5016119;28;20450;-91
2021/11/06 12:04:40;;;;;;;23.57;21.87;;;;;;;;;;5015184;28;20794;-92
2021/11/06 12:07:16;;;;;;;24.00;22.40;;;;;;;;;;5015928;28;20492;-88
2021/11/06 12:09:44;;;;;;;22.97;21.50;;;;;;;;;;5015906;28;20818;-91
2021/11/06 12:12:11;;;;;;;22.80;21.40;;;;;;;;;;5017822;28;20418;-96
2021/11/06 12:14:50;;;;;;;21.80;20.40;;;;;;;;;;5020375;28;20468;-96
2021/11/06 12:17:32;;;;;;;22.50;21.00;;;;;;;;;;5025125;28;20513;-96
2021/11/06 12:19:59;;;;;;;22.53;21.03;;;;;;;;;;5021478;28;20459;-96
2021/11/06 12:22:30;;;;;;;22.77;20.97;;;;;;;;;;5017273;28;20435;-96
2021/11/06 12:28:23;;;;;;;22.50;20.90;;;;;;;;;;5014459;28;20473;-96
2021/11/06 12:30:58;;;;;;;26.23;24.03;;;;;;;;;;5036949;23;20435;-96
2021/11/06 12:33:45;;;;;;;23.37;21.63;;;;;;;;;;5056044;28;20443;-96
2021/11/06 13:20:54;;;;;;;23.93;22.50;;;;;;;;;;5559428;22;20474;-96
2021/11/06 13:23:24;;;;;;;25.33;23.67;;;;;;;;;;5028904;28;20432;-96
2021/11/06 13:25:52;;;;;;;23.33;21.50;;;;;;;;;;5048902;28;20453;-96
2021/11/06 13:28:22;;;;;;;24.07;22.57;;;;;;;;;;5050361;28;20976;-96
2021/11/06 13:30:59;;;;;;;24.10;22.60;;;;;;;;;;5046743;28;20933;-96
2021/11/06 13:33:33;;;;;;;22.30;20.90;;;;;;;;;;5042511;28;20456;-96
2021/11/06 13:36:11;;;;;;;22.40;21.10;;;;;;;;;;5052447;28;20440;-96
2021/11/06 13:39:00;;;;;;;22.63;21.03;;;;;;;;;;4977109;29;20441;-96
2021/11/06 13:41:28;;;;;;;23.73;21.53;;;;;;;;;;4973692;28;20449;-96
2021/11/06 13:43:57;;;;;;;22.80;21.30;;;;;;;;;;4964344;28;20473;-96
2021/11/06 13:46:36;;;;;;;22.80;21.27;;;;;;;;;;4951880;29;20458;-96
2021/11/06 13:52:03;;;;;;;24.00;22.43;;;;;;;;;;4967320;28;20486;-96
2021/11/06 13:54:41;;;;;;;23.03;21.73;;;;;;;;;;4969138;28;20803;-96
2021/11/06 13:57:12;;;;;;;23.43;21.90;;;;;;;;;;4966759;28;20979;-96
2021/11/06 13:59:54;;;;;;;22.97;21.57;;;;;;;;;;4967514;28;20803;-96
2021/11/06 14:02:25;;;;;;;23.27;21.67;;;;;;;;;;4975969;28;20467;-96
2021/11/06 14:04:58;;;;;;;22.70;21.20;;;;;;;;;;5046127;28;20821;-96
2021/11/06 14:07:33;;;;;;;22.70;21.17;;;;;;;;;;5048760;28;20426;-96
2021/11/06 14:10:04;;;;;;;22.80;21.40;;;;;;;;;;5048070;28;20466;-96
2021/11/06 14:15:32;;;;;;;22.23;20.83;;;;;;;;;;5046984;28;20456;-96
2021/11/06 14:18:03;;;;;;;21.87;20.47;;;;;;;;;;5046708;28;20417;-96
2021/11/06 14:20:34;;;;;;;21.60;20.40;;;;;;;;;;5046857;28;20470;-96
2021/11/06 14:23:04;;;;;;;22.53;21.00;;;;;;;;;;5029857;28;20418;-96
2021/11/06 14:25:37;;;;;;;23.17;21.57;;;;;;;;;;5029259;28;20424;-96
2021/11/06 14:28:07;;;;;;;22.80;21.40;;;;;;;;;;5029986;28;20846;-96
2021/11/06 14:30:48;;;;;;;23.87;22.37;;;;;;;;;;5043562;28;20534;-96
2021/11/06 14:33:23;;;;;;;23.50;22.00;;;;;;;;;;5042537;28;20422;-96
2021/11/06 14:35:51;;;;;;;23.00;21.50;;;;;;;;;;5037417;28;20434;-96
2021/11/06 14:38:20;;;;;;;22.70;21.30;;;;;;;;;;5037479;28;20524;-96
2021/11/06 14:41:03;;;;;;;22.70;21.20;;;;;;;;;;5035415;28;20489;-95
2021/11/06 14:43:31;;;;;;;22.43;20.97;;;;;;;;;;5037194;28;20406;-96
2021/11/06 14:45:59;;;;;;;22.30;20.83;;;;;;;;;;5035180;28;20434;-96
2021/11/06 14:48:28;;;;;;;22.73;21.23;;;;;;;;;;5033492;28;20483;-95
2021/11/06 14:51:01;;;;;;;22.40;21.00;;;;;;;;;;5033739;28;20481;-93
2021/11/06 14:53:30;;;;;;;23.87;21.90;;;;;;;;;;5033592;28;20432;-94
2021/11/06 14:56:00;;;;;;;23.60;21.80;;;;;;;;;;5033667;28;20456;-94
2021/11/06 14:58:42;;;;;;;22.30;20.73;;;;;;;;;;5019615;28;20455;-95
2021/11/06 15:01:14;;;;;;;23.20;21.60;;;;;;;;;;5036936;28;20467;-95
2021/11/06 15:03:43;;;;;;;22.73;21.23;;;;;;;;;;5037195;28;20561;-96
2021/11/06 15:06:12;;;;;;;22.07;20.73;;;;;;;;;;5037363;28;20562;-94
2021/11/06 15:08:43;;;;;;;22.97;21.43;;;;;;;;;;5037380;28;20462;-96
2021/11/06 15:11:13;;;;;;;22.50;21.00;;;;;;;;;;5037327;28;20430;-96
2021/11/06 15:13:41;;;;;;;22.97;21.40;;;;;;;;;;5036370;28;20446;-94
2021/11/06 15:16:09;;;;;;;23.27;21.77;;;;;;;;;;5036361;28;20426;-93
2021/11/06 15:18:37;;;;;;;23.33;21.90;;;;;;;;;;5036793;28;20447;-93
2021/11/06 15:21:05;;;;;;;22.97;21.47;;;;;;;;;;5036555;28;20582;-93